Aérodrome :
LOGIN :

S'inscrire | Disclaimer

   EN    FR    IT 

 










Légende :    VFR   VFR Marginal   IFR   IFR Intensif   IFR Très Intensif
Visi : 
Plafond : 
>= 8 km
>= 3000ft
5 à 8 km
1000 à 3000 ft
1500m à 5 km
500 à 1000 ft
800 à 1500m
200 à 500 ft
< 800m
< 200 ft
Symboles :   Orages  Brouillard  Fortes neiges  Fortes précipitations  Vent > 20 kt
SIGMETs :   Divers  Orages  Givrage  Turbulence  Onde Orograph.  Cendres Volcan.







- Altitude de l'aérodrome : 278 ft
- Code IATA : RJK


LDRI - Rijeka

DERNIER METAR :
  • 222000Z 05017G31KT 360V090 9999 FEW033 BKN046 04/M04 Q1010

METARs EXPIRÉS :
  • 221930Z 06016G29KT 030V100 9999 FEW033 BKN046 04/M05 Q1010
  • 221900Z 07013KT 020V120 9999 FEW033 BKN046 04/M04 Q1010
  • 221830Z 05020G30KT 020V100 9999 FEW033 BKN046 04/M04 Q1010
  • 221800Z 05019G32KT 010V080 9999 FEW033 BKN047 04/M04 Q1009
  • 221730Z 04015G25KT 360V080 9999 FEW033 BKN050 04/M04 Q1009

TAF TAF LDRI
Valide du 22 à 18h jusqu'au 23 à 18h UTC


221725Z 2218/2318 04018G30KT 9999 FEW033 BKN050 TX05/2313Z TN03/2300Z
TEMPO 2222/2318 05025G45KT
TEMPO 2222/2318 RA
PROB30
TEMPO 2305/2309 RASN
Pas de NOTAMs connus pour ce terrain.
2 SIGMETs publiés pour la FIR Zagreb (LDZO) :
 
Turbulence forte
LDZO SIGMET 9 VALID 221900/222200 LDZA
LDZO ZAGREB FIR SEV TURB FCST WI N4535 E01254 - N4540 E01435 - N4404 E01544 - N4412 E01342 - N4535 E01254 SFC/6000FT STNR NC=
Orages noyés dans la masse
LDZO SIGMET 10 VALID 221940/222200 LDZA
LDZO ZAGREB FIR EMBD TS OBS WI N4331 E01432 - N4355 E01525 - N4206 E01825 - N4128 E01818 - N4224 E01617 - N4331 E01432 TOP FL250 STNR NC=



MET'MAP, la Météo Aéronautique d'un coup d'oeil ! - Copyright ORBIFLY Décembre 2007 - Disclaimer

ORBIFLY MET'MAP TEAM :

Programmation & Développement : Alexandra Zaïnal
Conception & Développement : Baudouin d'Aumeries
Co-Programmation & Développement : Marc-Olivier Méhu
Soutien technique & logistique : Manuel Goepfert

Contact : metmap@orbifly.com




SOURCES & CREDITS :

   NOAA